Luis Alvarez

Recruteur en chef - Queretaro
25 Déc 2027
Samedi
Processus

Personnalité

Adaptabilité (16) Ambition (1) Controverse (13) Loyauté (17) Pression (11) Professionnalisme (12) Sportivité (1) Tempérament (16)

Profil

Style d'entraînement Démocratique
Diplôme National A
Détermination 7
Gestion des joueurs 6
Motivation 4
Discipline 6
Satisfaction professionnelle
100%
Fatigue
0%
Rôle Recruteur en chef
Salaire 22.6K p/s
Contrat 14.03.2028

Performance

Comportement Bon
Efficacité de l'entraînement
43%
Développement des joueurs
45%
Prévention des blessures
60%
Mise en place tactique
25%

Événements récents

Négociation de contrat entamée maintenant
A participé à une réunion de recrutement maintenant
A recommandé une cible de transfert maintenant
A recommandé une cible de transfert maintenant
A participé à une réunion de recrutement maintenant
A recommandé une cible de transfert maintenant
Négociation de contrat entamée maintenant
Négociation de contrat entamée maintenant

Suivi en cours

96
Joueur Club Statut Capacité Confiance Observé Dernière observation Dernier vote
Mathias Jørgensen Blackburn Rovers Actif 127 / 124 40% 1 12.07.2027 -
Facundo Castelli Estudiantes Négociation 114 / 117 40% 1 12.07.2027 -
Adam Jakobsen Castellón Actif 121 / 130 40% 1 05.07.2027 -
García Pascual Cádiz Actif 122 / 134 40% 1 05.07.2027 -
Yusi Alavés Actif 116 / 143 40% 4 29.06.2027 -
Godwin Oham Warri Wolves Actif 74 / 99 40% 1 29.06.2027 -
Kazunari Kita Real Sociedad Actif 94 / 109 40% 1 03.06.2027 -
Javier Ramirez Veracruz Perdu 89 / 99 69% 1 01.06.2027 -
Ozziel Herrera Real Madrid Actif 126 / 127 66% 1 01.06.2027 Approuver
Nazareno Roselli Defensa y Justicia Actif 118 / 121 40% 2 31.05.2027 -
Sam Curtis Swindon Town Actif 115 / 106 40% 1 31.05.2027 -
Enzo Cardozo Virtus Entella Actif 94 / 112 40% 4 27.05.2027 -
Mattia Puzone Siracusa Actif 98 / 113 40% 1 27.05.2027 -
Maeson King Blackpool Actif 115 / 103 40% 1 26.05.2027 -
Izan Merino Málaga Actif 126 / 119 40% 3 23.05.2027 -
Gonçalo Oliveira Benfica Actif 124 / 107 40% 1 23.05.2027 -
Gustavo Albarracín Alavés Actif 113 / 110 40% 1 20.05.2027 -
Sebastián Flores Rayo Vallecano Actif 117 / 110 40% 5 19.05.2027 -
Camilo Rey Domenech Racing Club Actif 115 / 120 40% 1 19.05.2027 -
Jonathan De Irastorza Levante Actif 121 / 116 40% 3 16.05.2027 -
Sergio Castillo Cortulua Actif 93 / 104 40% 2 12.05.2027 -
Abraham Paintsil Hasaacas Actif 86 / 88 40% 1 12.05.2027 -
Pietro Reggiori Pro Patria Actif 92 / 101 40% 2 11.05.2027 -
Juan Giménez Rosario Central Actif 113 / 114 40% 1 09.05.2027 -
Christos Mouzakitis Hull City Actif 142 / 126 40% 3 05.05.2027 -
Yussif Saidu Zaragoza Actif 110 / 119 40% 2 05.05.2027 -
Samuel Lucero Defensa y Justicia Actif 120 / 124 40% 1 03.05.2027 -
Edwin Asamoah Berekum Chelsea Actif 84 / 78 40% 1 02.05.2027 -
Daniel Kelly Derby County Actif 102 / 127 40% 1 02.05.2027 -
Edmund Inusah WAFA Actif 91 / 80 40% 1 01.05.2027 -
Tommaso Cecotti Carpi Actif 84 / 101 40% 1 30.04.2027 -
Alpha Touré FC Metz Actif 109 / 115 40% 2 29.04.2027 -
Jon Garro Real Sociedad Actif 97 / 93 40% 1 26.04.2027 -
Obed Vargas Atlético Madrid Actif 108 / 120 40% 2 22.04.2027 -
Alan Morinigo Olimpia Actif 111 / 112 40% 1 22.04.2027 -
Martim Cunha Porto Actif 92 / 113 40% 1 19.04.2027 -
Héctor Fort Real Sociedad Actif 122 / 140 40% 1 19.04.2027 -
Dylan Lawlor Cardiff City Actif 107 / 118 40% 1 17.04.2027 -
Eliás Montiel Atlético Madrid Actif 120 / 142 40% 1 17.04.2027 -
Lucas Jetten Cambuur Actif 112 / 128 40% 1 16.04.2027 -
Caleb Yirenkyi Coventry City Actif 122 / 139 40% 2 14.04.2027 -
Jofre Torrents Ajax Actif 122 / 131 40% 1 09.04.2027 -
Agustín Medina Lanús Actif 118 / 132 40% 1 06.04.2027 -
Marcelo Flores Tigres Actif 130 / 116 40% 2 13.01.2027 -
Diego Lainez Tigres Actif 128 / 128 70% 1 01.01.2027 Approuver
Chicharito Actif 123 / 123 67% 1 01.01.2027 Approuver
João Simões Sporting CP Actif 121 / 129 40% 1 01.01.2027 -
Lautaro Quiroga Defensa y Justicia Actif 111 / 108 40% 1 01.01.2027 -
Bryan González Guadalajara Actif 136 / 126 40% 1 31.12.2026 -
Brian Gutiérrez Guadalajara Actif 119 / 128 40% 2 30.12.2026 -
Alex Luna Instituto Actif 128 / 128 40% 5 30.12.2026 -
Kyriani Sabbe Club Brugge Actif 137 / 124 40% 2 30.12.2026 -
Manuel Duarte Barracas Central Actif 126 / 117 40% 2 28.12.2026 -
Relebohile Mofokeng Orlando Pirates Actif 127 / 133 40% 1 26.12.2026 -
Rodrigo González Aldosivi Actif 124 / 126 40% 1 25.12.2026 -
César Huerta Pumas UNAM Actif 124 / 119 40% 1 24.12.2026 Plus d'infos
Mathías Tomás Puebla Actif 110 / 114 40% 1 24.12.2026 -
Matías Pellegrini Vélez Actif 111 / 119 40% 1 23.12.2026 -
Petar Stanić Ludogorets Actif 122 / 142 40% 1 22.12.2026 -
John Mercado Sparta Prague Actif 110 / 129 40% 1 22.12.2026 -
Aarón Molinas Defensa y Justicia Actif 124 / 122 40% 4 20.12.2026 -
Juan Bisanz Huracán Actif 119 / 127 40% 3 19.12.2026 -
Jaminton Campaz Rosario Central Actif 129 / 129 40% 1 19.12.2026 -
Martín Ortega Newell's Old Boys Actif 132 / 121 40% 1 16.12.2026 -
Yuber Quiñónes Deportivo Pereira Actif 128 / 113 40% 2 15.12.2026 -
Franco Díaz Temperley Actif 132 / 121 40% 1 15.12.2026 -
Joaquín Gho Argentinos Juniors Actif 134 / 124 40% 4 12.12.2026 -
Rumarn Burrell Queens Park Rangers Actif 142 / 130 40% 3 12.12.2026 -
Alexander Díaz Deportivo Riestra Actif 107 / 119 40% 1 11.12.2026 -
Diego Pavia Barracas Central Actif 97 / 97 40% 1 09.12.2026 -
Joaquín García Vélez Actif 122 / 132 40% 3 08.12.2026 -
Matías Fernández Independiente Rivadavia Actif 119 / 125 40% 2 08.12.2026 -
Matko Miljevic Racing Club Actif 139 / 130 40% 1 05.12.2026 -
Ramiro Ruiz Rodríguez Atlético Tucumán Actif 112 / 124 40% 1 05.12.2026 -
Rodrigo Huescas FC Copenhagen Actif 136 / 134 40% 1 04.12.2026 -
Fernando Martínez Central Córdoba SdE Actif 118 / 120 40% 1 04.12.2026 -
Julián Palacios Unión de Santa Fe Actif 122 / 114 40% 2 30.11.2026 -
Jorge Ruvalcaba New York Red Bulls Actif 122 / 116 40% 1 29.11.2026 -
Augusto Schott Talleres Actif 133 / 116 40% 1 24.11.2026 -
Rodrigo Herrera Newell's Old Boys Actif 114 / 123 40% 3 23.11.2026 -
Martín Garay Tigre Actif 121 / 116 40% 1 18.11.2026 -
Tobías Andrada Betis Actif 127 / 136 40% 1 15.11.2026 -
Juan Oviedo Gimnasia y Tiro Actif 78 / 95 40% 1 12.11.2026 -
Mateo Ovalle Argentinos Juniors Actif 94 / 106 40% 1 12.11.2026 -
Ignacio Schor O'Higgins Actif 121 / 124 40% 1 08.11.2026 -
Siro Rosané Estudiantes Actif 127 / 124 40% 1 05.11.2026 -
Alejandro Piedrahita Deportivo Pereira Actif 120 / 120 40% 1 05.11.2026 -
Valentín Serrano Arsenal Actif 101 / 112 40% 1 11.10.2026 -
Ramón González Almirante Brown Actif 110 / 117 40% 1 10.10.2026 -
Martín Campos Ferro Carril Oeste Actif 125 / 119 40% 1 09.10.2026 -
Tiago Palacios Estudiantes Actif 119 / 134 40% 1 09.10.2026 -
Gastón Benedetti Estudiantes Actif 130 / 125 40% 1 08.10.2026 -
Alejo Dramisino Atlanta Actif 122 / 114 40% 1 07.10.2026 -
Santiago González Tigre Actif 136 / 124 40% 1 07.10.2026 -
Tomás Galván River Plate Actif 130 / 132 40% 1 06.10.2026 -
Javier Altamirano Universidad de Chile Actif 134 / 129 40% 1 05.10.2026 -